createdAt,value
2022-08-16T00:04:30.831Z,99358.44
2022-08-16T00:09:31.747Z,99360.31
2022-08-16T00:14:36.480Z,99361.50
2022-08-16T00:19:41.924Z,99357.34
2022-08-16T00:24:44.932Z,99359.75
2022-08-16T00:29:47.715Z,99360.31
2022-08-16T00:35:02.892Z,99370.72
2022-08-16T00:40:34.276Z,99366.16
2022-08-16T00:45:58.303Z,99363.19
2022-08-16T00:51:03.680Z,99370.50
2022-08-16T00:56:10.108Z,99368.03
2022-08-16T01:01:32.659Z,99364.53
2022-08-16T01:06:40.321Z,99362.84
2022-08-16T01:11:51.728Z,99366.88
2022-08-16T01:16:58.708Z,99378.78
2022-08-16T01:22:46.826Z,99384.47
2022-08-16T01:27:34.438Z,99390.06
2022-08-16T01:32:38.642Z,99387.28
2022-08-16T01:37:42.573Z,99382.47
2022-08-16T01:42:49.680Z,99386.34
2022-08-16T01:47:55.342Z,99402.47
2022-08-16T01:53:00.486Z,99395.56
2022-08-16T01:58:31.682Z,99387.66
2022-08-16T02:03:33.519Z,99387.50
2022-08-16T02:08:34.488Z,99390.84
2022-08-16T02:13:41.631Z,99386.72
2022-08-16T02:18:43.770Z,99392.78
2022-08-16T02:23:50.931Z,99395.53
2022-08-16T02:28:57.935Z,99383.38
2022-08-16T02:33:58.557Z,99376.88
2022-08-16T02:39:10.838Z,99393.53
2022-08-16T02:44:14.676Z,99382.25
2022-08-16T02:49:20.510Z,99384.84
2022-08-16T02:54:23.934Z,99393.25
2022-08-16T02:59:27.496Z,99396.56
2022-08-16T03:04:51.148Z,99397.56
2022-08-16T03:09:54.802Z,99401.16
2022-08-16T03:14:59.212Z,99417.53
2022-08-16T03:20:02.891Z,99423.66
2022-08-16T03:25:12.597Z,99424.72
2022-08-16T03:30:26.641Z,99419.31
2022-08-16T03:35:34.035Z,99420.72
2022-08-16T03:40:42.889Z,99432.94
2022-08-16T03:45:45.405Z,99429.13
2022-08-16T03:50:59.817Z,99438.75
2022-08-16T03:56:01.881Z,99438.81
2022-08-16T04:01:05.417Z,99447.56
2022-08-16T04:06:08.358Z,99452.31
2022-08-16T04:11:10.730Z,99459.78
2022-08-16T04:16:27.446Z,99445.22
2022-08-16T04:21:45.907Z,99461.59
2022-08-16T04:26:51.912Z,99470.28
2022-08-16T04:31:58.210Z,99478.72
2022-08-16T04:37:05.163Z,99480.41
2022-08-16T04:42:11.273Z,99485.41
2022-08-16T04:47:21.555Z,99492.00
2022-08-16T04:52:34.190Z,99495.44
2022-08-16T04:57:38.043Z,99499.47
2022-08-16T05:02:42.887Z,99502.66
2022-08-16T05:07:59.662Z,99509.28
2022-08-16T05:13:06.419Z,99507.97
2022-08-16T05:18:09.301Z,99509.00
2022-08-16T05:23:25.567Z,99514.72
2022-08-16T05:28:39.068Z,99517.06
2022-08-16T05:33:42.791Z,99521.75
2022-08-16T05:38:43.996Z,99524.09
2022-08-16T05:43:48.164Z,99527.19
2022-08-16T05:49:09.039Z,99527.28
2022-08-16T05:54:17.382Z,99522.84
2022-08-16T05:59:30.476Z,99534.50
2022-08-16T06:04:36.022Z,99520.72
2022-08-16T06:09:43.560Z,99521.78
2022-08-16T06:14:45.955Z,99529.34
2022-08-16T06:19:48.281Z,99535.16
2022-08-16T06:24:55.329Z,99530.59
2022-08-16T06:29:57.470Z,99525.84
2022-08-16T06:35:02.808Z,99532.44
2022-08-16T06:40:12.489Z,99525.13
2022-08-16T06:45:21.453Z,99532.19
2022-08-16T06:50:35.409Z,99532.44
2022-08-16T06:55:40.228Z,99543.06
2022-08-16T07:00:45.387Z,99554.72
2022-08-16T07:05:47.689Z,99566.47
2022-08-16T07:10:56.576Z,99566.91
2022-08-16T07:16:01.657Z,99577.06
2022-08-16T07:21:04.410Z,99573.81
2022-08-16T07:26:08.834Z,99579.41
2022-08-16T07:31:13.032Z,99581.28
2022-08-16T07:36:21.872Z,99582.47
2022-08-16T07:41:23.234Z,99579.09
2022-08-16T07:46:38.822Z,99587.06
2022-08-16T07:52:02.583Z,99597.31
2022-08-16T07:57:21.036Z,99587.44
2022-08-16T08:02:27.369Z,99584.47
2022-08-16T08:07:32.540Z,99594.06
2022-08-16T08:12:35.707Z,99590.47
2022-08-16T08:17:42.978Z,99592.00
2022-08-16T08:22:48.526Z,99597.47
2022-08-16T08:27:50.476Z,99599.34
2022-08-16T08:33:01.072Z,99610.53
2022-08-16T08:38:08.220Z,99605.06
2022-08-16T08:43:18.017Z,99604.44
2022-08-16T08:48:34.219Z,99607.19
2022-08-16T08:53:40.029Z,99596.66
2022-08-16T08:58:54.041Z,99601.03
2022-08-16T09:04:05.970Z,99593.00
2022-08-16T09:09:09.611Z,99602.25
2022-08-16T09:14:23.839Z,99597.31
2022-08-16T09:19:33.082Z,99597.31
2022-08-16T09:24:52.127Z,99606.38
2022-08-16T09:30:00.245Z,99605.25
2022-08-16T09:35:02.429Z,99603.38
2022-08-16T09:40:32.907Z,99601.31
2022-08-16T09:45:28.811Z,99598.28
2022-08-16T09:50:37.278Z,99585.03
2022-08-16T09:55:44.506Z,99577.00
2022-08-16T10:00:45.879Z,99589.16
2022-08-16T10:05:47.160Z,99586.66
2022-08-16T10:11:03.333Z,99593.94
2022-08-16T10:21:15.636Z,99571.44
2022-08-16T10:27:16.840Z,99579.56
2022-08-16T10:31:45.325Z,99580.78
2022-08-16T10:36:46.946Z,99581.25
2022-08-16T10:41:56.374Z,99576.84
2022-08-16T10:46:59.703Z,99569.31
2022-08-16T10:52:18.073Z,99577.03
2022-08-16T10:57:24.562Z,99577.78
2022-08-16T11:02:57.530Z,99576.41
2022-08-16T11:07:51.931Z,99578.19
2022-08-16T11:12:56.441Z,99576.75
2022-08-16T11:23:18.275Z,99566.41
2022-08-16T11:33:58.890Z,99566.63
2022-08-16T11:39:01.013Z,99561.78
2022-08-16T11:44:03.197Z,99551.38
2022-08-16T11:49:08.618Z,99561.19
2022-08-16T11:54:20.918Z,99551.84
2022-08-16T11:59:28.459Z,99549.97
2022-08-16T12:04:30.202Z,99544.81
2022-08-16T12:09:31.172Z,99536.22
2022-08-16T12:14:35.241Z,99540.16
2022-08-16T12:19:36.482Z,99541.69
2022-08-16T12:24:38.693Z,99539.69
2022-08-16T12:29:40.619Z,99535.16
2022-08-16T12:34:50.402Z,99528.00
2022-08-16T12:39:56.171Z,99528.91
2022-08-16T12:44:58.277Z,99527.00
2022-08-16T12:49:58.970Z,99523.63
2022-08-16T12:55:00.824Z,99518.19
2022-08-16T13:00:02.855Z,99517.69
2022-08-16T13:05:03.560Z,99505.34
2022-08-16T13:10:21.197Z,99507.97
2022-08-16T13:15:31.878Z,99516.53
2022-08-16T13:20:37.034Z,99513.19
2022-08-16T13:25:43.720Z,99507.34
2022-08-16T13:30:50.497Z,99508.66
2022-08-16T13:35:55.663Z,99517.06
2022-08-16T13:41:02.286Z,99506.19
2022-08-16T13:46:06.638Z,99504.13
2022-08-16T13:51:07.666Z,99505.16
2022-08-16T13:56:08.848Z,99509.44
2022-08-16T14:01:12.672Z,99498.66
2022-08-16T14:06:14.230Z,99493.59
2022-08-16T14:11:16.478Z,99490.78
2022-08-16T14:16:24.315Z,99488.78
2022-08-16T14:21:35.428Z,99489.94
2022-08-16T14:26:36.500Z,99490.94
2022-08-16T14:31:39.746Z,99490.53
2022-08-16T14:36:42.233Z,99478.19
2022-08-16T14:41:43.138Z,99474.84
2022-08-16T14:46:45.128Z,99479.47
2022-08-16T14:51:46.364Z,99465.84
2022-08-16T14:56:54.831Z,99478.72
2022-08-16T15:02:00.738Z,99473.63
2022-08-16T15:07:01.839Z,99465.56
2022-08-16T15:12:07.253Z,99472.75
2022-08-16T15:17:35.790Z,99471.34
2022-08-16T15:22:40.768Z,99477.16
2022-08-16T15:27:43.512Z,99478.31
2022-08-16T15:32:45.866Z,99491.38
2022-08-16T15:37:46.626Z,99477.19
2022-08-16T15:42:57.670Z,99486.72
2022-08-16T15:47:59.604Z,99489.25
2022-08-16T15:53:12.564Z,99489.63
2022-08-16T15:58:34.497Z,99488.09
2022-08-16T16:03:36.202Z,99487.13
2022-08-16T16:08:38.877Z,99490.06
2022-08-16T16:13:40.573Z,99482.78
2022-08-16T16:18:42.618Z,99488.75
2022-08-16T16:23:54.739Z,99483.28
2022-08-16T16:29:07.599Z,99488.41
2022-08-16T16:34:16.553Z,99483.16
2022-08-16T16:39:17.789Z,99487.78
2022-08-16T16:44:32.109Z,99483.34
2022-08-16T16:49:36.526Z,99481.47
2022-08-16T16:54:42.474Z,99489.25
2022-08-16T16:59:43.064Z,99488.47
2022-08-16T17:04:47.200Z,99497.84
2022-08-16T17:09:48.162Z,99504.91
2022-08-16T17:14:48.778Z,99495.41
2022-08-16T17:19:51.217Z,99509.59
2022-08-16T17:24:53.312Z,99504.66
2022-08-16T17:29:55.557Z,99504.44
2022-08-16T17:35:00.418Z,99509.50
2022-08-16T17:40:06.246Z,99501.31
2022-08-16T17:45:23.084Z,99513.84
2022-08-16T17:50:25.538Z,99524.53
2022-08-16T17:55:30.977Z,99522.41
2022-08-16T18:00:32.053Z,99535.75
2022-08-16T18:05:34.253Z,99541.69
2022-08-16T18:10:36.487Z,99539.91
2022-08-16T18:15:37.747Z,99544.53
2022-08-16T18:20:56.485Z,99548.00
2022-08-16T18:25:58.729Z,99566.56
2022-08-16T18:31:01.146Z,99564.19
2022-08-16T18:36:20.504Z,99565.16
2022-08-16T18:41:24.110Z,99581.94
2022-08-16T18:46:24.739Z,99581.06
2022-08-16T18:51:26.976Z,99591.72
2022-08-16T18:56:56.797Z,99593.59
2022-08-16T19:01:49.856Z,99592.28
2022-08-16T19:06:51.879Z,99595.81
2022-08-16T19:11:52.524Z,99596.63
2022-08-16T19:16:53.775Z,99607.50
2022-08-16T19:21:55.805Z,99608.63
2022-08-16T19:26:57.197Z,99611.84
2022-08-16T19:31:58.142Z,99614.78
2022-08-16T19:37:00.138Z,99625.09
2022-08-16T19:42:11.416Z,99627.88
2022-08-16T19:47:12.254Z,99628.75
2022-08-16T19:52:17.727Z,99638.09
2022-08-16T19:57:19.396Z,99641.22
2022-08-16T20:02:25.541Z,99646.94
2022-08-16T20:07:38.770Z,99647.44
2022-08-16T20:12:41.446Z,99657.72
2022-08-16T20:17:43.975Z,99663.94
2022-08-16T20:22:54.598Z,99663.72
2022-08-16T20:27:56.026Z,99669.34
2022-08-16T20:32:57.512Z,99672.31
2022-08-16T20:38:00.949Z,99669.19
2022-08-16T20:43:07.319Z,99678.50
2022-08-16T20:48:08.105Z,99667.41
2022-08-16T20:53:10.584Z,99667.91
2022-08-16T20:58:11.194Z,99667.06
2022-08-16T21:03:13.922Z,99667.91
2022-08-16T21:08:51.143Z,99661.44
2022-08-16T21:13:42.506Z,99668.00
2022-08-16T21:18:44.145Z,99670.16
2022-08-16T21:23:46.131Z,99667.28
2022-08-16T21:28:46.781Z,99660.97
2022-08-16T21:33:54.812Z,99670.16
2022-08-16T21:38:57.289Z,99680.06
2022-08-16T21:43:57.916Z,99672.63
2022-08-16T21:48:58.597Z,99671.22
2022-08-16T21:54:02.289Z,99670.84
2022-08-16T21:59:07.005Z,99671.22
2022-08-16T22:04:37.579Z,99667.94
2022-08-16T22:09:31.273Z,99669.09
2022-08-16T22:14:32.134Z,99678.13
2022-08-16T22:19:32.724Z,99679.97
2022-08-16T22:24:34.774Z,99684.25
2022-08-16T22:29:35.421Z,99689.44
2022-08-16T22:34:40.157Z,99695.44
2022-08-16T22:39:42.102Z,99693.50
2022-08-16T22:44:46.286Z,99692.53
2022-08-16T22:49:47.211Z,99699.47
2022-08-16T22:54:49.320Z,99702.47
2022-08-16T22:59:50.187Z,99700.16
2022-08-16T23:04:53.998Z,99696.59
2022-08-16T23:09:55.943Z,99692.41
2022-08-16T23:14:57.385Z,99703.50
2022-08-16T23:19:58.957Z,99690.97
2022-08-16T23:25:01.796Z,99691.72
2022-08-16T23:30:02.439Z,99691.28
2022-08-16T23:35:04.118Z,99682.28
2022-08-16T23:40:07.566Z,99682.84
2022-08-16T23:45:09.272Z,99681.22
2022-08-16T23:50:10.534Z,99677.13
2022-08-16T23:55:12.799Z,99676.22
